Hlavní strana
METAR-TAF:

METAR-TAF

Letiště :

Letiště Reykjavík

Reykjavík, Island

zeměpisná šířka: 64-08N, zeměpisná délka: 021-54W, výška: 54 m

Aktuální stav počasí

Zpráva byla vytvořena před 38 minutami, v 04:00 UTC
Jihovýchodní vítr 24 kt s nárazy do 35 kt
Teplota 11°C
Vlhkost vzduchu 82%
Tlak 1000 hPa
Viditelnost: 7000 m
Oblačno až skoro zataženo ve výšce 2200 ft
Zataženo ve výšce 2900 ft
slabý déšť, kouřmo

METAR: BIRK 170400Z 13024G35KT 7000 -RA BR BKN022 OVC029 11/08 Q1000

Čas: 04:38 (04:38 UTC)

Předpověď počasí

Zpráva byla vytvořena před 3 hodinami a 8 minutami, v 01:30 UTC
Předpověď platná od 17 v 03 UTC do 18 v 03 UTC
Východojihovýchodní vítr 27 kt s nárazy do 40 kt
Viditelnost: 5000 m
Polojasno ve výšce 700 ft
Oblačno až skoro zataženo ve výšce 1500 ft
Zataženo ve výšce 2500 ft
déšť, mrholení

TAF: BIRK 170130Z 1703/1803 11027G40KT 5000 RADZ SCT007 BKN015 OVC025 TX11/1712Z TN07/1703Z

Stav a předpovědi počasí z více než 4 000 letišť (zprávy METAR a TAF).

Červené a žluté tečky na mapě představují dostupné meteorologické stanice.

Když kurzor umístíte na tečku, zobrazí se název stanice.

Pak kliknutím zobrazíte stav a předpověď počasí.

Chcete-li změnit mapu, kliknutím na zelené tlačítko se znaménkem +mapu přiblížíte, kliknutím na zelené tlačítko se znaménkem – mapu oddálíte a kliknutím na zelené šipky přejdete na sousední mapy.


METAR-TAF: